sensor_id;sensor_type;location;lat;lon;timestamp;P1;durP1;ratioP1;P2;durP2;ratioP2
20709;SDS011;10516;51.518;9.864;2022-07-09T00:00:09;4.00;;;2.33;;
20709;SDS011;10516;51.518;9.864;2022-07-09T00:02:35;4.90;;;2.72;;
20709;SDS011;10516;51.518;9.864;2022-07-09T00:05:01;4.30;;;2.45;;
20709;SDS011;10516;51.518;9.864;2022-07-09T00:07:26;5.25;;;2.85;;
20709;SDS011;10516;51.518;9.864;2022-07-09T00:09:52;4.53;;;2.53;;
20709;SDS011;10516;51.518;9.864;2022-07-09T00:12:17;3.00;;;2.15;;
20709;SDS011;10516;51.518;9.864;2022-07-09T00:14:43;4.22;;;2.47;;
20709;SDS011;10516;51.518;9.864;2022-07-09T00:17:09;6.80;;;2.85;;
20709;SDS011;10516;51.518;9.864;2022-07-09T00:19:34;2.67;;;2.10;;
20709;SDS011;10516;51.518;9.864;2022-07-09T00:22:00;5.05;;;2.60;;
20709;SDS011;10516;51.518;9.864;2022-07-09T00:24:25;3.40;;;2.55;;
20709;SDS011;10516;51.518;9.864;2022-07-09T00:26:50;2.75;;;2.15;;
20709;SDS011;10516;51.518;9.864;2022-07-09T00:29:16;3.67;;;2.42;;
20709;SDS011;10516;51.518;9.864;2022-07-09T00:31:41;4.20;;;2.85;;
20709;SDS011;10516;51.518;9.864;2022-07-09T00:34:07;4.53;;;2.88;;
20709;SDS011;10516;51.518;9.864;2022-07-09T00:36:32;5.30;;;3.20;;
20709;SDS011;10516;51.518;9.864;2022-07-09T00:38:57;6.40;;;3.17;;
20709;SDS011;10516;51.518;9.864;2022-07-09T00:41:23;5.68;;;2.53;;
20709;SDS011;10516;51.518;9.864;2022-07-09T00:43:49;5.10;;;2.70;;
20709;SDS011;10516;51.518;9.864;2022-07-09T00:46:15;6.18;;;3.20;;
20709;SDS011;10516;51.518;9.864;2022-07-09T00:48:42;5.10;;;2.25;;
20709;SDS011;10516;51.518;9.864;2022-07-09T00:51:07;8.70;;;3.90;;
20709;SDS011;10516;51.518;9.864;2022-07-09T00:53:34;3.28;;;2.70;;
20709;SDS011;10516;51.518;9.864;2022-07-09T00:55:59;3.08;;;2.72;;
20709;SDS011;10516;51.518;9.864;2022-07-09T00:58:26;3.65;;;3.00;;
20709;SDS011;10516;51.518;9.864;2022-07-09T01:00:52;5.20;;;2.92;;
20709;SDS011;10516;51.518;9.864;2022-07-09T01:03:18;6.00;;;2.35;;
20709;SDS011;10516;51.518;9.864;2022-07-09T01:05:44;4.93;;;2.67;;
20709;SDS011;10516;51.518;9.864;2022-07-09T01:08:10;4.40;;;3.25;;
20709;SDS011;10516;51.518;9.864;2022-07-09T01:10:35;6.65;;;2.67;;
20709;SDS011;10516;51.518;9.864;2022-07-09T01:13:02;3.33;;;2.47;;
20709;SDS011;10516;51.518;9.864;2022-07-09T01:15:29;4.60;;;3.42;;
20709;SDS011;10516;51.518;9.864;2022-07-09T01:17:54;2.78;;;2.50;;
20709;SDS011;10516;51.518;9.864;2022-07-09T01:20:22;5.93;;;2.67;;
20709;SDS011;10516;51.518;9.864;2022-07-09T01:22:48;5.90;;;3.55;;
20709;SDS011;10516;51.518;9.864;2022-07-09T01:25:14;5.78;;;3.28;;
20709;SDS011;10516;51.518;9.864;2022-07-09T01:27:42;4.63;;;3.10;;
20709;SDS011;10516;51.518;9.864;2022-07-09T01:30:07;3.65;;;2.80;;
20709;SDS011;10516;51.518;9.864;2022-07-09T01:32:33;3.33;;;2.75;;
20709;SDS011;10516;51.518;9.864;2022-07-09T01:34:58;3.67;;;2.85;;
20709;SDS011;10516;51.518;9.864;2022-07-09T01:37:24;7.38;;;3.15;;
20709;SDS011;10516;51.518;9.864;2022-07-09T01:39:49;5.85;;;3.25;;
20709;SDS011;10516;51.518;9.864;2022-07-09T01:42:17;4.32;;;3.30;;
20709;SDS011;10516;51.518;9.864;2022-07-09T01:44:44;3.65;;;2.78;;
20709;SDS011;10516;51.518;9.864;2022-07-09T01:47:10;4.53;;;3.08;;
20709;SDS011;10516;51.518;9.864;2022-07-09T01:49:37;3.90;;;2.83;;
20709;SDS011;10516;51.518;9.864;2022-07-09T01:52:03;6.15;;;3.40;;
20709;SDS011;10516;51.518;9.864;2022-07-09T01:54:29;4.07;;;3.60;;
20709;SDS011;10516;51.518;9.864;2022-07-09T01:56:55;5.57;;;3.50;;
20709;SDS011;10516;51.518;9.864;2022-07-09T01:59:20;5.43;;;4.60;;
20709;SDS011;10516;51.518;9.864;2022-07-09T02:01:45;7.22;;;4.88;;
20709;SDS011;10516;51.518;9.864;2022-07-09T02:04:11;5.97;;;5.38;;
20709;SDS011;10516;51.518;9.864;2022-07-09T02:06:36;4.78;;;2.95;;
20709;SDS011;10516;51.518;9.864;2022-07-09T02:09:02;6.35;;;3.80;;
20709;SDS011;10516;51.518;9.864;2022-07-09T02:11:28;4.65;;;3.00;;
20709;SDS011;10516;51.518;9.864;2022-07-09T02:13:53;5.72;;;3.10;;
20709;SDS011;10516;51.518;9.864;2022-07-09T02:16:18;5.97;;;3.03;;
20709;SDS011;10516;51.518;9.864;2022-07-09T02:18:44;3.33;;;3.00;;
20709;SDS011;10516;51.518;9.864;2022-07-09T02:21:09;3.58;;;3.05;;
20709;SDS011;10516;51.518;9.864;2022-07-09T02:23:35;5.78;;;3.05;;
20709;SDS011;10516;51.518;9.864;2022-07-09T02:26:00;6.05;;;3.13;;
20709;SDS011;10516;51.518;9.864;2022-07-09T02:28:25;4.18;;;3.13;;
20709;SDS011;10516;51.518;9.864;2022-07-09T02:30:51;3.80;;;3.40;;
20709;SDS011;10516;51.518;9.864;2022-07-09T02:33:16;3.53;;;2.95;;
20709;SDS011;10516;51.518;9.864;2022-07-09T02:35:42;4.50;;;3.20;;
20709;SDS011;10516;51.518;9.864;2022-07-09T02:38:08;5.32;;;2.75;;
20709;SDS011;10516;51.518;9.864;2022-07-09T02:40:33;5.00;;;3.30;;
20709;SDS011;10516;51.518;9.864;2022-07-09T02:42:59;4.70;;;3.30;;
20709;SDS011;10516;51.518;9.864;2022-07-09T02:45:24;5.50;;;2.90;;
20709;SDS011;10516;51.518;9.864;2022-07-09T02:47:49;6.35;;;3.72;;
20709;SDS011;10516;51.518;9.864;2022-07-09T02:50:15;7.72;;;4.20;;
20709;SDS011;10516;51.518;9.864;2022-07-09T02:52:40;3.30;;;3.00;;
20709;SDS011;10516;51.518;9.864;2022-07-09T02:55:06;4.05;;;3.20;;
20709;SDS011;10516;51.518;9.864;2022-07-09T02:57:31;5.30;;;3.25;;
20709;SDS011;10516;51.518;9.864;2022-07-09T02:59:57;6.13;;;3.40;;
20709;SDS011;10516;51.518;9.864;2022-07-09T03:02:22;4.10;;;3.33;;
20709;SDS011;10516;51.518;9.864;2022-07-09T03:04:47;6.13;;;3.85;;
20709;SDS011;10516;51.518;9.864;2022-07-09T03:07:13;5.00;;;2.97;;
20709;SDS011;10516;51.518;9.864;2022-07-09T03:09:39;4.30;;;3.30;;
20709;SDS011;10516;51.518;9.864;2022-07-09T03:12:05;5.43;;;3.85;;
20709;SDS011;10516;51.518;9.864;2022-07-09T03:14:31;7.18;;;3.60;;
20709;SDS011;10516;51.518;9.864;2022-07-09T03:16:56;7.20;;;5.18;;
20709;SDS011;10516;51.518;9.864;2022-07-09T03:19:22;3.60;;;3.20;;
20709;SDS011;10516;51.518;9.864;2022-07-09T03:21:47;5.22;;;3.92;;
20709;SDS011;10516;51.518;9.864;2022-07-09T03:24:13;4.40;;;3.05;;
20709;SDS011;10516;51.518;9.864;2022-07-09T03:26:38;8.98;;;5.00;;
20709;SDS011;10516;51.518;9.864;2022-07-09T03:29:04;3.58;;;3.20;;
20709;SDS011;10516;51.518;9.864;2022-07-09T03:31:29;4.75;;;3.25;;
20709;SDS011;10516;51.518;9.864;2022-07-09T03:33:54;6.47;;;3.45;;
20709;SDS011;10516;51.518;9.864;2022-07-09T03:36:20;5.22;;;3.10;;
20709;SDS011;10516;51.518;9.864;2022-07-09T03:38:45;3.80;;;3.50;;
20709;SDS011;10516;51.518;9.864;2022-07-09T03:41:11;3.88;;;3.25;;
20709;SDS011;10516;51.518;9.864;2022-07-09T03:43:36;8.88;;;5.80;;
20709;SDS011;10516;51.518;9.864;2022-07-09T03:46:01;3.78;;;3.45;;
20709;SDS011;10516;51.518;9.864;2022-07-09T03:48:27;16.40;;;6.32;;
20709;SDS011;10516;51.518;9.864;2022-07-09T03:50:52;6.43;;;4.85;;
20709;SDS011;10516;51.518;9.864;2022-07-09T03:53:18;5.40;;;4.65;;
20709;SDS011;10516;51.518;9.864;2022-07-09T03:55:43;4.75;;;4.22;;
20709;SDS011;10516;51.518;9.864;2022-07-09T03:58:08;5.65;;;4.18;;
20709;SDS011;10516;51.518;9.864;2022-07-09T04:00:34;5.28;;;3.50;;
20709;SDS011;10516;51.518;9.864;2022-07-09T04:02:59;11.45;;;4.00;;
20709;SDS011;10516;51.518;9.864;2022-07-09T04:05:25;9.85;;;4.88;;
20709;SDS011;10516;51.518;9.864;2022-07-09T04:07:50;6.43;;;3.78;;
20709;SDS011;10516;51.518;9.864;2022-07-09T04:10:16;9.40;;;4.13;;
20709;SDS011;10516;51.518;9.864;2022-07-09T04:12:41;4.65;;;4.25;;
20709;SDS011;10516;51.518;9.864;2022-07-09T04:15:07;11.70;;;7.00;;
20709;SDS011;10516;51.518;9.864;2022-07-09T04:17:32;3.92;;;3.50;;
20709;SDS011;10516;51.518;9.864;2022-07-09T04:19:59;8.38;;;4.65;;
20709;SDS011;10516;51.518;9.864;2022-07-09T04:22:24;6.40;;;4.00;;
20709;SDS011;10516;51.518;9.864;2022-07-09T04:24:51;4.85;;;3.60;;
20709;SDS011;10516;51.518;9.864;2022-07-09T04:27:16;8.13;;;4.40;;
20709;SDS011;10516;51.518;9.864;2022-07-09T04:29:41;4.40;;;3.85;;
20709;SDS011;10516;51.518;9.864;2022-07-09T04:32:07;7.28;;;5.90;;
20709;SDS011;10516;51.518;9.864;2022-07-09T04:34:33;7.85;;;3.95;;
20709;SDS011;10516;51.518;9.864;2022-07-09T04:36:58;4.93;;;4.10;;
20709;SDS011;10516;51.518;9.864;2022-07-09T04:39:23;5.03;;;4.63;;
20709;SDS011;10516;51.518;9.864;2022-07-09T04:41:49;11.00;;;5.10;;
20709;SDS011;10516;51.518;9.864;2022-07-09T04:44:18;8.65;;;4.82;;
20709;SDS011;10516;51.518;9.864;2022-07-09T04:46:43;5.78;;;4.97;;
20709;SDS011;10516;51.518;9.864;2022-07-09T04:49:09;7.60;;;4.85;;
20709;SDS011;10516;51.518;9.864;2022-07-09T04:51:35;6.35;;;5.10;;
20709;SDS011;10516;51.518;9.864;2022-07-09T04:54:00;9.57;;;5.07;;
20709;SDS011;10516;51.518;9.864;2022-07-09T04:56:26;8.98;;;5.50;;
20709;SDS011;10516;51.518;9.864;2022-07-09T04:58:51;9.13;;;5.60;;
20709;SDS011;10516;51.518;9.864;2022-07-09T05:01:20;9.18;;;5.30;;
20709;SDS011;10516;51.518;9.864;2022-07-09T05:03:47;10.88;;;5.60;;
20709;SDS011;10516;51.518;9.864;2022-07-09T05:06:16;6.15;;;5.25;;
20709;SDS011;10516;51.518;9.864;2022-07-09T05:08:42;5.95;;;5.30;;
20709;SDS011;10516;51.518;9.864;2022-07-09T05:11:08;8.20;;;5.40;;
20709;SDS011;10516;51.518;9.864;2022-07-09T05:13:35;11.45;;;6.43;;
20709;SDS011;10516;51.518;9.864;2022-07-09T05:16:01;6.20;;;5.47;;
20709;SDS011;10516;51.518;9.864;2022-07-09T05:18:27;8.75;;;6.07;;
20709;SDS011;10516;51.518;9.864;2022-07-09T05:20:54;11.93;;;7.20;;
20709;SDS011;10516;51.518;9.864;2022-07-09T05:23:19;11.13;;;6.55;;
20709;SDS011;10516;51.518;9.864;2022-07-09T05:25:45;7.85;;;6.75;;
20709;SDS011;10516;51.518;9.864;2022-07-09T05:28:10;8.40;;;7.60;;
20709;SDS011;10516;51.518;9.864;2022-07-09T05:30:36;9.38;;;6.38;;
20709;SDS011;10516;51.518;9.864;2022-07-09T05:33:03;9.32;;;6.43;;
20709;SDS011;10516;51.518;9.864;2022-07-09T05:35:29;8.77;;;6.05;;
20709;SDS011;10516;51.518;9.864;2022-07-09T05:37:54;7.97;;;5.50;;
20709;SDS011;10516;51.518;9.864;2022-07-09T05:40:20;6.85;;;5.53;;
20709;SDS011;10516;51.518;9.864;2022-07-09T05:42:46;6.03;;;5.43;;
20709;SDS011;10516;51.518;9.864;2022-07-09T05:45:11;10.02;;;6.45;;
20709;SDS011;10516;51.518;9.864;2022-07-09T05:47:37;7.07;;;6.30;;
20709;SDS011;10516;51.518;9.864;2022-07-09T05:50:03;12.88;;;9.73;;
20709;SDS011;10516;51.518;9.864;2022-07-09T05:52:29;20.13;;;13.85;;
20709;SDS011;10516;51.518;9.864;2022-07-09T05:54:54;8.93;;;5.75;;
20709;SDS011;10516;51.518;9.864;2022-07-09T05:57:19;12.65;;;9.25;;
20709;SDS011;10516;51.518;9.864;2022-07-09T05:59:45;9.55;;;6.05;;
20709;SDS011;10516;51.518;9.864;2022-07-09T06:02:11;15.40;;;11.77;;
20709;SDS011;10516;51.518;9.864;2022-07-09T06:04:36;9.43;;;6.97;;
20709;SDS011;10516;51.518;9.864;2022-07-09T06:07:02;8.77;;;6.07;;
20709;SDS011;10516;51.518;9.864;2022-07-09T06:09:28;14.65;;;9.50;;
20709;SDS011;10516;51.518;9.864;2022-07-09T06:11:53;9.10;;;6.93;;
20709;SDS011;10516;51.518;9.864;2022-07-09T06:14:18;16.15;;;8.10;;
20709;SDS011;10516;51.518;9.864;2022-07-09T06:16:44;9.88;;;6.53;;
20709;SDS011;10516;51.518;9.864;2022-07-09T06:19:12;12.48;;;9.07;;
20709;SDS011;10516;51.518;9.864;2022-07-09T06:21:38;6.28;;;5.68;;
20709;SDS011;10516;51.518;9.864;2022-07-09T06:24:04;10.35;;;6.22;;
20709;SDS011;10516;51.518;9.864;2022-07-09T06:26:30;6.28;;;5.25;;
20709;SDS011;10516;51.518;9.864;2022-07-09T06:28:56;9.05;;;5.47;;
20709;SDS011;10516;51.518;9.864;2022-07-09T06:31:21;6.78;;;5.43;;
20709;SDS011;10516;51.518;9.864;2022-07-09T06:33:48;6.88;;;4.85;;
20709;SDS011;10516;51.518;9.864;2022-07-09T06:36:13;12.43;;;8.15;;
20709;SDS011;10516;51.518;9.864;2022-07-09T06:38:39;7.28;;;5.22;;
20709;SDS011;10516;51.518;9.864;2022-07-09T06:41:23;5.78;;;5.18;;
20709;SDS011;10516;51.518;9.864;2022-07-09T06:43:48;13.38;;;7.28;;
20709;SDS011;10516;51.518;9.864;2022-07-09T06:46:14;8.65;;;6.00;;
20709;SDS011;10516;51.518;9.864;2022-07-09T06:48:39;9.95;;;5.30;;
20709;SDS011;10516;51.518;9.864;2022-07-09T06:51:04;9.98;;;5.25;;
20709;SDS011;10516;51.518;9.864;2022-07-09T06:53:30;9.98;;;7.75;;
20709;SDS011;10516;51.518;9.864;2022-07-09T06:55:55;13.57;;;6.78;;
20709;SDS011;10516;51.518;9.864;2022-07-09T06:58:21;10.75;;;5.93;;
20709;SDS011;10516;51.518;9.864;2022-07-09T07:00:46;8.77;;;5.53;;
20709;SDS011;10516;51.518;9.864;2022-07-09T07:03:11;7.63;;;4.93;;
20709;SDS011;10516;51.518;9.864;2022-07-09T07:05:37;12.30;;;6.68;;
20709;SDS011;10516;51.518;9.864;2022-07-09T07:08:02;9.13;;;6.63;;
20709;SDS011;10516;51.518;9.864;2022-07-09T07:10:28;7.70;;;5.50;;
20709;SDS011;10516;51.518;9.864;2022-07-09T07:12:54;10.10;;;5.80;;
20709;SDS011;10516;51.518;9.864;2022-07-09T07:15:20;8.00;;;6.05;;
20709;SDS011;10516;51.518;9.864;2022-07-09T07:17:45;8.82;;;6.32;;
20709;SDS011;10516;51.518;9.864;2022-07-09T07:20:11;7.97;;;5.38;;
20709;SDS011;10516;51.518;9.864;2022-07-09T07:22:36;8.18;;;5.80;;
20709;SDS011;10516;51.518;9.864;2022-07-09T07:25:02;9.77;;;5.35;;
20709;SDS011;10516;51.518;9.864;2022-07-09T07:27:27;12.07;;;5.82;;
20709;SDS011;10516;51.518;9.864;2022-07-09T07:29:53;12.48;;;7.55;;
20709;SDS011;10516;51.518;9.864;2022-07-09T07:32:18;7.25;;;4.80;;
20709;SDS011;10516;51.518;9.864;2022-07-09T07:34:43;7.07;;;5.55;;
20709;SDS011;10516;51.518;9.864;2022-07-09T07:37:09;8.00;;;5.55;;
20709;SDS011;10516;51.518;9.864;2022-07-09T07:39:34;8.20;;;5.60;;
20709;SDS011;10516;51.518;9.864;2022-07-09T07:41:59;7.60;;;5.25;;
20709;SDS011;10516;51.518;9.864;2022-07-09T07:44:25;5.53;;;4.90;;
20709;SDS011;10516;51.518;9.864;2022-07-09T07:46:50;6.72;;;4.93;;
20709;SDS011;10516;51.518;9.864;2022-07-09T07:49:15;10.55;;;5.07;;
20709;SDS011;10516;51.518;9.864;2022-07-09T07:51:41;12.88;;;5.03;;
20709;SDS011;10516;51.518;9.864;2022-07-09T07:54:07;7.90;;;5.10;;
20709;SDS011;10516;51.518;9.864;2022-07-09T07:56:33;7.57;;;4.70;;
20709;SDS011;10516;51.518;9.864;2022-07-09T07:59:01;6.03;;;3.60;;
20709;SDS011;10516;51.518;9.864;2022-07-09T08:01:27;8.27;;;5.40;;
20709;SDS011;10516;51.518;9.864;2022-07-09T08:03:52;6.00;;;4.03;;
20709;SDS011;10516;51.518;9.864;2022-07-09T08:06:18;5.72;;;4.05;;
20709;SDS011;10516;51.518;9.864;2022-07-09T08:08:43;5.75;;;4.20;;
20709;SDS011;10516;51.518;9.864;2022-07-09T08:11:08;4.28;;;3.28;;
20709;SDS011;10516;51.518;9.864;2022-07-09T08:13:34;8.48;;;3.55;;
20709;SDS011;10516;51.518;9.864;2022-07-09T08:15:59;6.63;;;3.70;;
20709;SDS011;10516;51.518;9.864;2022-07-09T08:18:26;7.53;;;3.83;;
20709;SDS011;10516;51.518;9.864;2022-07-09T08:20:52;5.97;;;3.58;;
20709;SDS011;10516;51.518;9.864;2022-07-09T08:23:17;4.68;;;3.85;;
20709;SDS011;10516;51.518;9.864;2022-07-09T08:25:43;4.95;;;3.13;;
20709;SDS011;10516;51.518;9.864;2022-07-09T08:28:08;3.17;;;2.88;;
20709;SDS011;10516;51.518;9.864;2022-07-09T08:30:34;5.20;;;2.90;;
20709;SDS011;10516;51.518;9.864;2022-07-09T08:32:59;5.05;;;3.30;;
20709;SDS011;10516;51.518;9.864;2022-07-09T08:35:25;6.40;;;2.83;;
20709;SDS011;10516;51.518;9.864;2022-07-09T08:37:51;3.83;;;2.85;;
20709;SDS011;10516;51.518;9.864;2022-07-09T08:40:17;4.18;;;2.70;;
20709;SDS011;10516;51.518;9.864;2022-07-09T08:42:42;5.80;;;2.88;;
20709;SDS011;10516;51.518;9.864;2022-07-09T08:45:10;3.08;;;2.67;;
20709;SDS011;10516;51.518;9.864;2022-07-09T08:47:40;5.45;;;2.97;;
20709;SDS011;10516;51.518;9.864;2022-07-09T08:50:06;3.03;;;2.70;;
20709;SDS011;10516;51.518;9.864;2022-07-09T08:52:33;3.38;;;2.53;;
20709;SDS011;10516;51.518;9.864;2022-07-09T08:55:01;4.97;;;2.95;;
20709;SDS011;10516;51.518;9.864;2022-07-09T08:57:26;3.55;;;2.47;;
20709;SDS011;10516;51.518;9.864;2022-07-09T08:59:52;3.95;;;2.47;;
20709;SDS011;10516;51.518;9.864;2022-07-09T09:02:17;4.78;;;2.60;;
20709;SDS011;10516;51.518;9.864;2022-07-09T09:04:45;2.50;;;2.03;;
20709;SDS011;10516;51.518;9.864;2022-07-09T09:07:11;1.80;;;1.70;;
20709;SDS011;10516;51.518;9.864;2022-07-09T09:09:37;2.40;;;2.20;;
20709;SDS011;10516;51.518;9.864;2022-07-09T09:12:02;2.65;;;2.28;;
20709;SDS011;10516;51.518;9.864;2022-07-09T09:14:29;7.85;;;2.75;;
20709;SDS011;10516;51.518;9.864;2022-07-09T09:16:54;2.47;;;2.28;;
20709;SDS011;10516;51.518;9.864;2022-07-09T09:19:28;3.97;;;2.47;;
20709;SDS011;10516;51.518;9.864;2022-07-09T09:21:54;4.18;;;2.25;;
20709;SDS011;10516;51.518;9.864;2022-07-09T09:24:23;5.45;;;2.58;;
20709;SDS011;10516;51.518;9.864;2022-07-09T09:26:50;4.80;;;2.22;;
20709;SDS011;10516;51.518;9.864;2022-07-09T09:29:15;2.50;;;2.10;;
20709;SDS011;10516;51.518;9.864;2022-07-09T09:31:41;5.72;;;1.88;;
20709;SDS011;10516;51.518;9.864;2022-07-09T09:36:40;2.78;;;2.30;;
20709;SDS011;10516;51.518;9.864;2022-07-09T09:39:19;2.58;;;2.10;;
20709;SDS011;10516;51.518;9.864;2022-07-09T09:41:57;3.53;;;2.22;;
20709;SDS011;10516;51.518;9.864;2022-07-09T09:44:25;2.25;;;2.05;;
20709;SDS011;10516;51.518;9.864;2022-07-09T09:46:53;2.17;;;1.92;;
20709;SDS011;10516;51.518;9.864;2022-07-09T09:49:19;4.72;;;2.55;;
20709;SDS011;10516;51.518;9.864;2022-07-09T09:52:04;2.88;;;1.75;;
20709;SDS011;10516;51.518;9.864;2022-07-09T09:54:31;3.03;;;1.70;;
20709;SDS011;10516;51.518;9.864;2022-07-09T09:57:02;2.55;;;2.00;;
20709;SDS011;10516;51.518;9.864;2022-07-09T09:59:30;2.20;;;1.98;;
20709;SDS011;10516;51.518;9.864;2022-07-09T10:01:58;2.28;;;1.90;;
20709;SDS011;10516;51.518;9.864;2022-07-09T10:04:25;4.68;;;2.25;;
20709;SDS011;10516;51.518;9.864;2022-07-09T10:06:51;2.90;;;1.77;;
20709;SDS011;10516;51.518;9.864;2022-07-09T10:09:18;4.38;;;1.92;;
20709;SDS011;10516;51.518;9.864;2022-07-09T10:11:45;4.60;;;1.90;;
20709;SDS011;10516;51.518;9.864;2022-07-09T10:16:53;2.42;;;1.50;;
20709;SDS011;10516;51.518;9.864;2022-07-09T10:19:25;1.92;;;1.52;;
20709;SDS011;10516;51.518;9.864;2022-07-09T10:21:56;4.32;;;2.10;;
20709;SDS011;10516;51.518;9.864;2022-07-09T10:24:32;3.22;;;2.10;;
20709;SDS011;10516;51.518;9.864;2022-07-09T10:29:34;2.20;;;1.90;;
20709;SDS011;10516;51.518;9.864;2022-07-09T10:32:01;1.95;;;1.85;;
20709;SDS011;10516;51.518;9.864;2022-07-09T10:37:00;2.67;;;1.73;;
20709;SDS011;10516;51.518;9.864;2022-07-09T10:39:27;2.40;;;1.50;;
20709;SDS011;10516;51.518;9.864;2022-07-09T10:42:00;2.78;;;1.73;;
20709;SDS011;10516;51.518;9.864;2022-07-09T10:44:39;6.28;;;1.98;;
20709;SDS011;10516;51.518;9.864;2022-07-09T10:47:05;2.75;;;1.92;;
20709;SDS011;10516;51.518;9.864;2022-07-09T10:49:35;2.95;;;1.70;;
20709;SDS011;10516;51.518;9.864;2022-07-09T10:52:01;2.97;;;1.48;;
20709;SDS011;10516;51.518;9.864;2022-07-09T10:54:28;1.80;;;1.70;;
20709;SDS011;10516;51.518;9.864;2022-07-09T10:56:54;1.92;;;1.83;;
20709;SDS011;10516;51.518;9.864;2022-07-09T10:59:20;1.80;;;1.42;;
20709;SDS011;10516;51.518;9.864;2022-07-09T11:01:46;2.03;;;1.80;;
20709;SDS011;10516;51.518;9.864;2022-07-09T11:04:22;3.28;;;1.73;;
20709;SDS011;10516;51.518;9.864;2022-07-09T11:06:49;1.92;;;1.75;;
20709;SDS011;10516;51.518;9.864;2022-07-09T11:09:14;4.07;;;1.67;;
20709;SDS011;10516;51.518;9.864;2022-07-09T11:11:43;2.67;;;1.80;;
20709;SDS011;10516;51.518;9.864;2022-07-09T11:14:10;2.55;;;2.13;;
20709;SDS011;10516;51.518;9.864;2022-07-09T11:16:36;3.63;;;1.83;;
20709;SDS011;10516;51.518;9.864;2022-07-09T11:19:14;1.85;;;1.75;;
20709;SDS011;10516;51.518;9.864;2022-07-09T11:21:40;2.92;;;2.13;;
20709;SDS011;10516;51.518;9.864;2022-07-09T11:24:18;1.73;;;1.63;;
20709;SDS011;10516;51.518;9.864;2022-07-09T11:26:45;3.40;;;1.63;;
20709;SDS011;10516;51.518;9.864;2022-07-09T11:29:12;2.25;;;1.38;;
20709;SDS011;10516;51.518;9.864;2022-07-09T11:31:45;2.80;;;1.88;;
20709;SDS011;10516;51.518;9.864;2022-07-09T11:34:11;3.38;;;1.70;;
20709;SDS011;10516;51.518;9.864;2022-07-09T11:36:41;3.53;;;2.00;;
20709;SDS011;10516;51.518;9.864;2022-07-09T11:39:30;2.97;;;1.50;;
20709;SDS011;10516;51.518;9.864;2022-07-09T11:41:58;1.80;;;1.27;;
20709;SDS011;10516;51.518;9.864;2022-07-09T11:44:28;1.45;;;1.35;;
20709;SDS011;10516;51.518;9.864;2022-07-09T11:49:37;1.88;;;1.63;;
20709;SDS011;10516;51.518;9.864;2022-07-09T11:52:25;2.15;;;1.63;;
20709;SDS011;10516;51.518;9.864;2022-07-09T11:54:54;2.35;;;1.23;;
20709;SDS011;10516;51.518;9.864;2022-07-09T11:57:20;1.65;;;1.48;;
20709;SDS011;10516;51.518;9.864;2022-07-09T11:59:47;1.48;;;1.30;;
20709;SDS011;10516;51.518;9.864;2022-07-09T12:02:22;1.88;;;1.70;;
20709;SDS011;10516;51.518;9.864;2022-07-09T12:04:48;2.80;;;1.70;;
20709;SDS011;10516;51.518;9.864;2022-07-09T12:07:13;1.60;;;1.50;;
20709;SDS011;10516;51.518;9.864;2022-07-09T12:09:39;2.00;;;1.60;;
20709;SDS011;10516;51.518;9.864;2022-07-09T12:12:04;2.70;;;1.90;;
20709;SDS011;10516;51.518;9.864;2022-07-09T12:14:30;1.33;;;1.27;;
20709;SDS011;10516;51.518;9.864;2022-07-09T12:16:56;2.33;;;1.52;;
20709;SDS011;10516;51.518;9.864;2022-07-09T12:19:22;3.20;;;1.58;;
20709;SDS011;10516;51.518;9.864;2022-07-09T12:21:48;1.70;;;1.60;;
20709;SDS011;10516;51.518;9.864;2022-07-09T12:24:13;2.75;;;1.85;;
20709;SDS011;10516;51.518;9.864;2022-07-09T12:26:39;3.17;;;1.30;;
20709;SDS011;10516;51.518;9.864;2022-07-09T12:29:04;1.60;;;1.50;;
20709;SDS011;10516;51.518;9.864;2022-07-09T12:31:29;2.63;;;2.05;;
20709;SDS011;10516;51.518;9.864;2022-07-09T12:33:55;2.50;;;1.55;;
20709;SDS011;10516;51.518;9.864;2022-07-09T12:36:21;1.83;;;1.40;;
20709;SDS011;10516;51.518;9.864;2022-07-09T12:38:46;3.63;;;1.67;;
20709;SDS011;10516;51.518;9.864;2022-07-09T12:41:11;1.80;;;1.70;;
20709;SDS011;10516;51.518;9.864;2022-07-09T12:43:37;2.70;;;2.03;;
20709;SDS011;10516;51.518;9.864;2022-07-09T12:46:02;4.68;;;1.17;;
20709;SDS011;10516;51.518;9.864;2022-07-09T12:48:28;2.35;;;1.38;;
20709;SDS011;10516;51.518;9.864;2022-07-09T12:50:53;1.60;;;1.50;;
20709;SDS011;10516;51.518;9.864;2022-07-09T12:53:19;1.50;;;1.40;;
20709;SDS011;10516;51.518;9.864;2022-07-09T12:55:44;1.77;;;1.40;;
20709;SDS011;10516;51.518;9.864;2022-07-09T12:58:10;1.75;;;1.60;;
20709;SDS011;10516;51.518;9.864;2022-07-09T13:00:35;2.45;;;1.20;;
20709;SDS011;10516;51.518;9.864;2022-07-09T13:03:00;1.77;;;1.17;;
20709;SDS011;10516;51.518;9.864;2022-07-09T13:05:26;2.55;;;1.70;;
20709;SDS011;10516;51.518;9.864;2022-07-09T13:07:51;2.40;;;1.42;;
20709;SDS011;10516;51.518;9.864;2022-07-09T13:10:17;2.03;;;1.80;;
20709;SDS011;10516;51.518;9.864;2022-07-09T13:12:42;4.65;;;1.35;;
20709;SDS011;10516;51.518;9.864;2022-07-09T13:15:08;2.50;;;1.35;;
20709;SDS011;10516;51.518;9.864;2022-07-09T13:17:33;1.40;;;1.30;;
20709;SDS011;10516;51.518;9.864;2022-07-09T13:19:59;1.50;;;1.40;;
20709;SDS011;10516;51.518;9.864;2022-07-09T13:22:24;3.05;;;1.35;;
20709;SDS011;10516;51.518;9.864;2022-07-09T13:24:50;1.40;;;1.30;;
20709;SDS011;10516;51.518;9.864;2022-07-09T13:27:15;3.05;;;1.75;;
20709;SDS011;10516;51.518;9.864;2022-07-09T13:29:46;1.48;;;1.33;;
20709;SDS011;10516;51.518;9.864;2022-07-09T13:32:12;1.30;;;1.20;;
20709;SDS011;10516;51.518;9.864;2022-07-09T13:34:37;2.28;;;1.73;;
20709;SDS011;10516;51.518;9.864;2022-07-09T13:37:03;1.77;;;1.33;;
20709;SDS011;10516;51.518;9.864;2022-07-09T13:39:28;2.58;;;1.20;;
20709;SDS011;10516;51.518;9.864;2022-07-09T13:41:54;1.60;;;1.45;;
20709;SDS011;10516;51.518;9.864;2022-07-09T13:44:19;2.40;;;1.65;;
20709;SDS011;10516;51.518;9.864;2022-07-09T13:46:45;3.17;;;1.60;;
20709;SDS011;10516;51.518;9.864;2022-07-09T13:49:10;4.88;;;1.65;;
20709;SDS011;10516;51.518;9.864;2022-07-09T13:51:36;5.93;;;2.00;;
20709;SDS011;10516;51.518;9.864;2022-07-09T13:54:02;2.30;;;1.95;;
20709;SDS011;10516;51.518;9.864;2022-07-09T13:56:27;2.80;;;2.38;;
20709;SDS011;10516;51.518;9.864;2022-07-09T13:58:53;4.53;;;2.10;;
20709;SDS011;10516;51.518;9.864;2022-07-09T14:01:19;2.75;;;2.13;;
20709;SDS011;10516;51.518;9.864;2022-07-09T14:03:45;5.22;;;2.10;;
20709;SDS011;10516;51.518;9.864;2022-07-09T14:06:10;4.40;;;2.95;;
20709;SDS011;10516;51.518;9.864;2022-07-09T14:08:36;4.75;;;1.92;;
20709;SDS011;10516;51.518;9.864;2022-07-09T14:11:03;4.32;;;2.15;;
20709;SDS011;10516;51.518;9.864;2022-07-09T14:13:29;3.08;;;1.95;;
20709;SDS011;10516;51.518;9.864;2022-07-09T14:15:55;2.63;;;2.38;;
20709;SDS011;10516;51.518;9.864;2022-07-09T14:18:22;3.88;;;2.50;;
20709;SDS011;10516;51.518;9.864;2022-07-09T14:20:48;5.80;;;2.10;;
20709;SDS011;10516;51.518;9.864;2022-07-09T14:23:16;8.65;;;3.33;;
20709;SDS011;10516;51.518;9.864;2022-07-09T14:25:42;8.05;;;3.10;;
20709;SDS011;10516;51.518;9.864;2022-07-09T14:28:08;4.82;;;3.20;;
20709;SDS011;10516;51.518;9.864;2022-07-09T14:30:33;2.90;;;2.55;;
20709;SDS011;10516;51.518;9.864;2022-07-09T14:32:59;4.80;;;2.55;;
20709;SDS011;10516;51.518;9.864;2022-07-09T14:35:27;2.75;;;2.03;;
20709;SDS011;10516;51.518;9.864;2022-07-09T14:37:52;4.60;;;2.33;;
20709;SDS011;10516;51.518;9.864;2022-07-09T14:40:18;3.25;;;2.78;;
20709;SDS011;10516;51.518;9.864;2022-07-09T14:42:43;4.65;;;2.60;;
20709;SDS011;10516;51.518;9.864;2022-07-09T14:45:08;6.05;;;3.13;;
20709;SDS011;10516;51.518;9.864;2022-07-09T14:47:34;4.60;;;2.95;;
20709;SDS011;10516;51.518;9.864;2022-07-09T14:50:00;4.95;;;2.90;;
20709;SDS011;10516;51.518;9.864;2022-07-09T14:52:26;3.17;;;2.78;;